MER weather

Castle Airport
Merced, California, United States

Public forecast

Using degrees Fahrenheit for public forecast. Weather courtesy of forecast.io.

METAR (pilot weather report)

Retrieved 2019/08/20 22:45 UTC (45 minutes ago):

KMER 202245Z 31011KT 10SM SKC 33/13 A2990

TAF (pilot weather forecast)

Retrieved 2019/08/20 18:25 UTC (5 hours ago):

TAF KMER 201720Z 2018/2118 32007KT P6SM SKC